EGNM/LBA METAR and TAF weather

Enter ICAO airport designator
Station Type Date Time Source
EGNM METAR 2018/01/21 12:20 UTC NOAA

EGNM 211220Z 15011KT 1800 -RASN BR SCT002 BKN003 00/M00 Q1009


Station Type Date Time Source
EGNM Decoded METAR 2018/01/21 12:20 UTC NOAA

Leeds And Bradford, United Kingdom (EGNM) 53-52N 001-39W
Jan 21, 2018 - 07:20 AM EST / 2018.01.21 1220 UTC
Wind: from the SSE (150 degrees) at 13 MPH (11 KT):0
Visibility: 1 mile(s):0
Sky conditions: mostly cloudy
Weather: light rain, snow; mist
Temperature: 32 F (0 C)
Windchill: 23 F (-5 C):1
Dew Point: 32 F (0 C)
Relative Humidity: 100%
Pressure (altimeter): 29.80 in. Hg (1009 hPa)
ob: EGNM 211220Z 15011KT 1800 -RASN BR SCT002 BKN003 00/M00 Q1009
cycle: 12

Station Type Date Time Source
EGNM TAF 2018/01/21 12:15 UTC NOAA

TAF TAF EGNM 211105Z 2112/2212 15012KT 3000 -SN SCT005 BKN020
BECMG 2112/2114 1200 SN OVC002 PROB40
TEMPO 2112/2119 0300 FG OVC000
BECMG 2114/2117 3000 RADZ PROB30
TEMPO 2114/2117 FZRA
BECMG 2120/2123 26018G28KT 9999 NSW SCT018
TEMPO 2123/2210 BKN010
BECMG 2202/2206 27013KT


Example: see airport list